sensor_id;sensor_type;location;lat;lon;timestamp;pressure;altitude;pressure_sealevel;temperature;humidity
50093;BME280;35974;47.752;10.290;2023-02-18T14:12:37;94399.69;;;13.21;66.09
50093;BME280;35974;47.752;10.290;2023-02-18T14:25:50;94399.41;;;12.84;66.66
50093;BME280;35974;47.752;10.290;2023-02-18T14:33:43;94399.81;;;12.80;66.67
50093;BME280;35974;47.752;10.290;2023-02-18T14:42:04;94420.72;;;13.21;65.79
50093;BME280;35974;47.752;10.290;2023-02-18T14:47:39;94412.22;;;13.25;64.76
50093;BME280;35974;47.752;10.290;2023-02-18T14:50:15;94389.72;;;12.51;68.03
50093;BME280;35974;47.752;10.290;2023-02-18T14:52:53;94402.41;;;12.67;67.25
50093;BME280;35974;47.752;10.290;2023-02-18T14:55:28;94396.50;;;13.05;67.19
50093;BME280;35974;47.752;10.290;2023-02-18T14:58:02;94415.97;;;12.64;67.56
50093;BME280;35974;47.752;10.290;2023-02-18T15:00:39;94424.84;;;12.83;66.78
50093;BME280;35974;47.752;10.290;2023-02-18T15:03:16;94420.78;;;12.67;67.36
50093;BME280;35974;47.752;10.290;2023-02-18T15:05:43;94419.41;;;12.64;67.96
50093;BME280;35974;47.752;10.290;2023-02-18T15:08:22;94406.28;;;12.44;68.79
50093;BME280;35974;47.752;10.290;2023-02-18T15:11:05;94415.78;;;12.72;67.60
50093;BME280;35974;47.752;10.290;2023-02-18T15:13:40;94319.28;;;12.07;67.81
50093;BME280;35974;47.752;10.290;2023-02-18T15:16:29;94443.22;;;12.50;68.18
50093;BME280;35974;47.752;10.290;2023-02-18T15:19:00;94445.03;;;12.22;69.35
50093;BME280;35974;47.752;10.290;2023-02-18T15:21:34;94418.13;;;12.07;68.47
50093;BME280;35974;47.752;10.290;2023-02-18T15:26:58;94437.22;;;11.87;70.14
50093;BME280;35974;47.752;10.290;2023-02-18T15:29:27;94448.44;;;11.61;71.48
50093;BME280;35974;47.752;10.290;2023-02-18T15:31:56;94400.72;;;11.24;72.63
50093;BME280;35974;47.752;10.290;2023-02-18T15:34:35;94445.16;;;11.46;72.06
50093;BME280;35974;47.752;10.290;2023-02-18T15:37:08;94442.47;;;11.81;71.36
50093;BME280;35974;47.752;10.290;2023-02-18T15:39:40;94415.00;;;11.63;71.60
50093;BME280;35974;47.752;10.290;2023-02-18T15:44:55;94445.38;;;11.99;69.91
50093;BME280;35974;47.752;10.290;2023-02-18T15:47:24;94431.03;;;11.95;70.00
50093;BME280;35974;47.752;10.290;2023-02-18T15:49:52;94434.81;;;11.86;70.00
50093;BME280;35974;47.752;10.290;2023-02-18T15:52:34;94432.41;;;11.91;70.15
50093;BME280;35974;47.752;10.290;2023-02-18T15:55:10;94417.84;;;11.75;70.75
50093;BME280;35974;47.752;10.290;2023-02-18T21:33:48;94547.00;;;8.93;79.66
50093;BME280;35974;47.752;10.290;2023-02-18T21:36:15;94537.69;;;9.29;78.60
50093;BME280;35974;47.752;10.290;2023-02-18T21:39:02;94502.53;;;8.87;78.21
50093;BME280;35974;47.752;10.290;2023-02-18T21:41:29;94539.22;;;9.08;78.62
50093;BME280;35974;47.752;10.290;2023-02-18T21:43:56;94511.56;;;8.99;78.66
50093;BME280;35974;47.752;10.290;2023-02-18T21:46:28;94503.25;;;8.81;78.24
50093;BME280;35974;47.752;10.290;2023-02-18T21:48:56;94544.63;;;8.84;80.20
50093;BME280;35974;47.752;10.290;2023-02-18T21:51:44;94491.19;;;8.79;78.91
50093;BME280;35974;47.752;10.290;2023-02-18T21:54:42;94519.69;;;8.66;80.95
50093;BME280;35974;47.752;10.290;2023-02-18T21:57:12;94475.19;;;8.36;80.35
50093;BME280;35974;47.752;10.290;2023-02-18T21:59:39;94517.13;;;8.58;80.63
50093;BME280;35974;47.752;10.290;2023-02-18T22:02:09;94434.91;;;8.47;79.15
50093;BME280;35974;47.752;10.290;2023-02-18T22:04:39;94517.91;;;8.82;79.74
50093;BME280;35974;47.752;10.290;2023-02-18T22:07:06;94481.94;;;8.54;79.88
50093;BME280;35974;47.752;10.290;2023-02-18T22:09:34;94496.59;;;8.93;78.71
50093;BME280;35974;47.752;10.290;2023-02-18T22:12:01;94466.06;;;8.40;80.00
50093;BME280;35974;47.752;10.290;2023-02-18T22:14:28;94506.59;;;8.89;78.83
50093;BME280;35974;47.752;10.290;2023-02-18T22:16:54;94480.25;;;8.61;79.42
50093;BME280;35974;47.752;10.290;2023-02-18T22:19:21;94488.69;;;8.48;80.27
50093;BME280;35974;47.752;10.290;2023-02-18T22:21:47;94470.59;;;8.47;80.47
50093;BME280;35974;47.752;10.290;2023-02-18T22:24:15;94508.16;;;8.75;79.96
50093;BME280;35974;47.752;10.290;2023-02-18T22:26:43;94477.28;;;8.64;80.18
50093;BME280;35974;47.752;10.290;2023-02-18T22:29:12;94495.88;;;8.99;78.65
50093;BME280;35974;47.752;10.290;2023-02-18T22:31:39;94436.38;;;8.41;80.79
50093;BME280;35974;47.752;10.290;2023-02-18T22:34:06;94414.41;;;8.21;80.33
50093;BME280;35974;47.752;10.290;2023-02-18T22:36:32;94445.91;;;8.72;79.30
50093;BME280;35974;47.752;10.290;2023-02-18T22:38:59;94447.88;;;8.32;81.61
50093;BME280;35974;47.752;10.290;2023-02-18T22:41:28;94472.56;;;8.45;81.63
50093;BME280;35974;47.752;10.290;2023-02-18T22:43:59;94491.34;;;8.63;81.27
50093;BME280;35974;47.752;10.290;2023-02-18T22:46:27;94490.84;;;8.83;80.84
50093;BME280;35974;47.752;10.290;2023-02-18T22:48:56;94472.22;;;8.48;81.43
50093;BME280;35974;47.752;10.290;2023-02-18T22:51:25;94492.44;;;8.84;80.27
50093;BME280;35974;47.752;10.290;2023-02-18T22:53:53;94490.75;;;8.91;79.65
50093;BME280;35974;47.752;10.290;2023-02-18T22:56:21;94442.44;;;8.19;81.31
50093;BME280;35974;47.752;10.290;2023-02-18T22:58:49;94472.06;;;8.64;80.52
50093;BME280;35974;47.752;10.290;2023-02-18T23:03:54;94446.91;;;8.71;78.91
50093;BME280;35974;47.752;10.290;2023-02-18T23:06:22;94466.91;;;8.94;78.80
50093;BME280;35974;47.752;10.290;2023-02-18T23:08:49;94461.13;;;8.84;79.21
50093;BME280;35974;47.752;10.290;2023-02-18T23:11:17;94485.50;;;8.76;80.07
50093;BME280;35974;47.752;10.290;2023-02-18T23:13:44;94422.81;;;8.69;78.68
50093;BME280;35974;47.752;10.290;2023-02-18T23:16:32;94452.13;;;8.71;79.85
50093;BME280;35974;47.752;10.290;2023-02-18T23:19:18;94465.19;;;9.01;78.18
50093;BME280;35974;47.752;10.290;2023-02-18T23:21:45;94462.94;;;8.98;77.65
50093;BME280;35974;47.752;10.290;2023-02-18T23:24:12;94415.25;;;8.74;78.13
50093;BME280;35974;47.752;10.290;2023-02-18T23:26:38;94468.91;;;9.22;77.81
50093;BME280;35974;47.752;10.290;2023-02-18T23:29:04;94426.75;;;8.95;77.86
50093;BME280;35974;47.752;10.290;2023-02-18T23:31:32;94472.28;;;9.37;77.48
50093;BME280;35974;47.752;10.290;2023-02-18T23:34:00;94480.06;;;9.15;77.64
50093;BME280;35974;47.752;10.290;2023-02-18T23:36:28;94463.75;;;8.98;78.12
50093;BME280;35974;47.752;10.290;2023-02-18T23:38:57;94464.75;;;8.97;78.17
50093;BME280;35974;47.752;10.290;2023-02-18T23:41:24;94404.97;;;8.88;77.77
50093;BME280;35974;47.752;10.290;2023-02-18T23:43:51;94431.25;;;9.01;77.40
50093;BME280;35974;47.752;10.290;2023-02-18T23:46:20;94463.84;;;9.05;78.21
50093;BME280;35974;47.752;10.290;2023-02-18T23:48:47;94360.75;;;8.41;77.42
50093;BME280;35974;47.752;10.290;2023-02-18T23:51:16;94449.69;;;8.85;79.13
50093;BME280;35974;47.752;10.290;2023-02-18T23:53:43;94404.72;;;8.68;78.00
50093;BME280;35974;47.752;10.290;2023-02-18T23:56:18;94452.31;;;9.14;77.17
50093;BME280;35974;47.752;10.290;2023-02-18T23:58:47;94418.91;;;8.80;77.86
